Flight Track Log - Related Links

Times and Time Zones

All times are in EDT time to prevent confusion due to time zone crossing. See the EJA727 flight status page for this flight to view local times or setup timezone preferences in your user account.

Time Position Orientation Groundspeed Altitude Reporting Facility
EDT Latitude Longitude Course Direction KTS MPH feet Rate Location/Type
Wed 07:07:48 PM 25.8025 -80.2722 77° East 134 154 900  Level Miami Center
Wed 07:09:16 PM 25.8211 -80.1806 77° East 243 280 5,700 2,473 Climbing Miami Center
Wed 07:10:16 PM 25.8272 -80.0953 85° East 256 295 7,000 2,200 Climbing Miami Center
Wed 07:11:16 PM 25.8289 -80.0192 89° East 256 295 10,100 3,100 Climbing Miami Center
Wed 07:12:16 PM 25.8033 -79.9400 110° East 251 289 13,200 2,800 Climbing Miami Center
Wed 07:13:16 PM 25.7700 -79.8469 112° Southeast 287 330 15,700 2,450 Climbing Miami Center
Wed 07:14:16 PM 25.7303 -79.7444 113° Southeast 328 377 18,100 2,400 Climbing Miami Center
Wed 07:15:16 PM 25.6925 -79.6375 111° Southeast 359 413 20,500 2,350 Climbing Miami Center
Wed 07:16:16 PM 25.6464 -79.5281 115° Southeast 374 430 22,800 1,250 Climbing Miami Center
Wed 07:17:16 PM 25.6047 -79.4050 111° Southeast 398 458 23,000 100 Climbing Miami Center
Wed 07:18:16 PM 25.5547 -79.2728 113° Southeast 434 499 23,000 600 Level Miami Center
Wed 07:19:16 PM 25.5236 -79.1339 104° East 453 521 24,200 1,950 Climbing Miami Center
Wed 07:20:16 PM 25.4942 -79.0000 104° East 458 527 26,900 2,350 Climbing Miami Center
Wed 07:21:16 PM 25.4625 -78.8706 105° East 448 516 28,900 1,750 Climbing Miami Center
Wed 07:22:16 PM 25.4267 -78.7411 107° East 436 502 30,400 1,267 Climbing Miami Center
Wed 07:24:16 PM 25.3633 -78.4525 104° East 470 541 32,700 1,400 Climbing Miami Center
Wed 07:25:16 PM 25.3311 -78.3164 105° East 475 547 34,600 1,900 Climbing Miami Center
Wed 07:26:16 PM 25.2969 -78.1781 105° East 470 541 36,500 1,750 Climbing Miami Center
Wed 07:27:16 PM 25.2481 -78.0467 112° Southeast 470 541 38,100 1,250 Climbing Miami Center
Wed 07:28:16 PM 25.1989 -77.9153 112° Southeast 464 534 39,000 450 Climbing Miami Center
Wed 07:29:16 PM 25.1494 -77.7794 112° Southeast 464 534 39,000  Level Miami Center
Wed 07:30:16 PM 25.0961 -77.6414 113° Southeast 474 545 39,000  Level Miami Center
Wed 07:31:16 PM 25.0297 -77.4964 117° Southeast 494 568 39,000  Level Miami Center
Wed 07:32:16 PM 24.9467 -77.3608 124° Southeast 516 594 39,000  Level Miami Center
Wed 07:33:16 PM 24.8636 -77.2300 125° Southeast 524 603 39,000  Level Miami Center
Wed 07:34:16 PM 24.7803 -77.1014 125° Southeast 517 595 39,000  Level Miami Center
Wed 07:35:16 PM 24.6967 -76.9756 126° Southeast 517 595 39,000  Level Miami Center
Wed 07:36:16 PM 24.6131 -76.8450 125° Southeast 517 595 39,000  Level Miami Center
Wed 07:37:16 PM 24.5294 -76.7194 126° Southeast 522 601 39,000  Level Miami Center
Wed 07:38:16 PM 24.4436 -76.5894 126° Southeast 522 601 39,000  Level Miami Center
Wed 07:39:16 PM 24.3556 -76.4528 125° Southeast 522 601 39,000  Level Miami Center
Wed 07:40:16 PM 24.2694 -76.3253 127° Southeast 522 601 39,000  Level Miami Center
Wed 07:41:16 PM 24.1831 -76.1983 127° Southeast 522 601 39,000  Level Miami Center
Wed 07:42:16 PM 24.1011 -76.0689 125° Southeast 522 601 39,000  Level Miami Center
Wed 07:43:16 PM 24.0147 -75.9397 126° Southeast 522 601 39,000  Level Miami Center
Wed 07:44:16 PM 23.9322 -75.8108 125° Southeast 522 601 39,000  Level Miami Center
Wed 07:45:16 PM 23.8456 -75.6819 126° Southeast 522 601 39,000  Level Miami Center
Wed 07:46:16 PM 23.7589 -75.5533 126° Southeast 522 601 39,000  Level Miami Center
Wed 07:47:16 PM 23.6742 -75.4250 126° Southeast 522 601 39,000  Level Miami Center
Wed 07:48:16 PM 23.5956 -75.3125 127° Southeast 522 601 39,000  Level Miami Center
Wed 07:49:16 PM 23.5128 -75.1867 126° Southeast 522 601 39,000  Level Miami Center
Wed 07:50:16 PM 23.4256 -75.0633 128° Southeast 522 601 39,000  Level Miami Center
Wed 07:51:16 PM 23.3406 -74.9356 126° Southeast 522 601 39,000  Level Miami Center
Wed 07:52:16 PM 23.2575 -74.8125 126° Southeast 522 601 39,000  Level Miami Center
Wed 07:53:16 PM 23.1722 -74.6894 127° Southeast 522 601 39,000  Level Miami Center
Wed 07:54:16 PM 23.0867 -74.5667 127° Southeast 522 601 39,000  Level Miami Center
Wed 07:55:16 PM 23.0033 -74.4464 127° Southeast 512 589 39,000  Level Miami Center
Wed 07:56:16 PM 22.9242 -74.3261 126° Southeast 500 575 39,000  Level Miami Center
Wed 07:57:16 PM 22.8406 -74.2061 127° Southeast 500 575 39,000  Level Miami Center
Wed 07:58:16 PM 22.7569 -74.0839 127° Southeast 500 575 39,000  Level Miami Center
Wed 07:59:16 PM 22.6753 -73.9664 127° Southeast 495 570 39,000  Level Miami Center
Wed 08:00:16 PM 22.5936 -73.8467 126° Southeast 495 570 39,000  Level Miami Center
Wed 08:01:16 PM 22.5097 -73.7272 127° Southeast 495 570 39,000  Level Miami Center
Wed 08:02:16 PM 22.4278 -73.6103 127° Southeast 500 575 39,000  Level Miami Center
Wed 08:03:16 PM 22.3439 -73.4911 127° Southeast 500 575 39,000  Level Miami Center
Wed 08:04:16 PM 22.2639 -73.3764 127° Southeast 495 570 39,000  Level Miami Center
Wed 08:05:16 PM 22.1797 -73.2553 127° Southeast 495 570 39,000  Level Miami Center
Wed 08:06:16 PM 22.0975 -73.1389 127° Southeast 495 570 39,000  Level Miami Center
Wed 08:07:16 PM 22.0133 -73.0225 128° Southeast 495 570 39,000  Level Miami Center
Wed 08:08:16 PM 21.9289 -72.9064 128° Southeast 495 570 39,000  Level Miami Center
Wed 08:09:16 PM 21.8486 -72.7881 126° Southeast 501 577 39,000  Level Miami Center
Wed 08:10:16 PM 21.7661 -72.6722 127° Southeast 495 570 39,000  Level Miami Center
Wed 08:11:16 PM 21.6836 -72.5564 127° Southeast 495 570 39,000  Level Miami Center
Wed 08:12:16 PM 21.6008 -72.4386 127° Southeast 495 570 39,000  Level Miami Center
Wed 08:13:16 PM 21.5181 -72.3208 127° Southeast 495 570 39,000  Level Miami Center
Wed 08:14:16 PM 21.4333 -72.2058 128° Southeast 500 575 39,000  Level Miami Center
Wed 08:15:16 PM 21.3461 -72.0861 128° Southeast 500 575 39,000  Level Miami Center
Wed 08:16:16 PM 21.2631 -71.9667 127° Southeast 500 575 39,000  Level Miami Center
Wed 08:17:16 PM 21.1781 -71.8497 128° Southeast 500 575 39,000  Level Miami Center
Wed 08:18:16 PM 21.0950 -71.7328 127° Southeast 500 575 39,000  Level Miami Center
Wed 08:19:16 PM 21.0008 -71.6008 127° Southeast 500 575 39,000  Level Miami Center
Wed 08:20:16 PM 20.9156 -71.4844 128° Southeast 500 575 39,000  Level Miami Center
Wed 08:21:16 PM 20.8300 -71.3681 128° Southeast 500 575 39,000  Level Miami Center
Wed 08:22:16 PM 20.7444 -71.2472 127° Southeast 500 575 39,000  Level Miami Center
Wed 08:23:16 PM 20.6589 -71.1311 128° Southeast 500 575 39,000  Level Miami Center
Wed 08:24:16 PM 20.5689 -71.0089 128° Southeast 500 575 39,000  Level Miami Center
Wed 08:25:16 PM 20.4828 -70.8864 127° Southeast 505 581 39,000  Level Miami Center
Wed 08:26:16 PM 20.3889 -70.7778 133° Southeast 510 587 39,000  Level Miami Center
Wed 08:27:16 PM 20.2733 -70.6944 146° Southeast 498 573 39,000  Level Miami Center
Wed 08:29:00 PM 20.0655 -70.6663 163° South  Level FlightAware Approximate
Wed 08:36:00 PM 19.4228 -70.1384 129° Southeast  Level FlightAware Approximate
Wed 08:37:00 PM 19.3456 -70.0393 130° Southeast  Level FlightAware Approximate
Wed 08:38:00 PM 19.2684 -69.9403 130° Southeast  Level FlightAware Approximate
Wed 08:39:00 PM 19.1616 -69.8885 164° South  Level FlightAware Approximate
Wed 08:40:00 PM 19.0450 -69.8535 164° South  Level FlightAware Approximate
Wed 08:41:00 PM 18.9293 -69.8153 162° South  Level FlightAware Approximate
Wed 08:42:00 PM 18.8134 -69.7774 164° South  Level FlightAware Approximate
Wed 08:43:00 PM 18.6968 -69.7424 164° South  Level FlightAware Approximate
Wed 08:44:00 PM 18.5833 -69.7113 90° East  Level FlightAware Approximate
Wed 08:45:00 PM 18.4760 -69.6737 159° South  Level FlightAware Approximate
Wed 08:46:00 PM 18.4297 -69.6689 159° South  Level Estimated
Wed 08:47:00 PM 18.4297 -69.6689 159° South  Level Estimated
Wed 08:48:00 PM 18.4297 -69.6689 159° South  Level Estimated
Wed 08:49:00 PM 18.4297 -69.6689 159° South  Level Estimated
Wed 08:50:00 PM 18.4297 -69.6689 159° South  Level Estimated
Wed 08:51:00 PM 18.4297 -69.6689 159° South  Level Estimated
Wed 08:52:00 PM 18.4297 -69.6689 159° South  Level Estimated
Wed 08:53:00 PM 18.4297 -69.6689 159° South  Level Estimated
Wed 08:54:00 PM 18.4297 -69.6689 159° South  Level Estimated
Wed 08:55:00 PM 18.4297 -69.6689 159° South  Level Estimated
Wed 08:56:00 PM 18.4297 -69.6689 159° South  Level Estimated
Wed 08:57:00 PM 18.4297 -69.6689 159° South  Level Estimated
Wed 08:58:00 PM 18.4297 -69.6689 159° South  Level Estimated
Wed 08:59:00 PM 18.4297 -69.6689 159° South  Level Estimated
Wed 09:00:00 PM 18.4297 -69.6689 159° South  Level Estimated
Wed 09:01:00 PM 18.4297 -69.6689 159° South  Level Estimated
Wed 09:02:00 PM 18.4297 -69.6689 159° South  Level Estimated
Wed 09:03:00 PM 18.4297 -69.6689 159° South  Level Estimated
Wed 09:04:00 PM 18.4297 -69.6689 159° South  Level Estimated
Wed 09:05:00 PM 18.4297 -69.6689 159° South  Level Estimated
Wed 09:06:00 PM 18.4297 -69.6689 159° South  Level Estimated
Wed 09:07:00 PM 18.4297 -69.6689 159° South  Level Estimated
Wed 09:08:00 PM 18.4297 -69.6689 159° South  Level Estimated

Login

Don't have an account? Register now (free) for customized features, flight alerts, and more!